createdAt,value
2019-05-30T00:01:05.462Z,100604.49
2019-05-30T00:03:38.151Z,100609.56
2019-05-30T00:06:10.580Z,100608.15
2019-05-30T00:08:42.928Z,100613.80
2019-05-30T00:11:15.459Z,100616.63
2019-05-30T00:13:47.903Z,100615.59
2019-05-30T00:16:20.564Z,100620.66
2019-05-30T00:18:52.922Z,100614.17
2019-05-30T00:21:25.192Z,100622.66
2019-05-30T00:23:57.869Z,100610.55
2019-05-30T00:26:30.121Z,100617.80
2019-05-30T00:29:02.736Z,100613.30
2019-05-30T00:31:34.977Z,100609.39
2019-05-30T00:34:07.450Z,100608.73
2019-05-30T00:36:39.760Z,100610.88
2019-05-30T00:39:12.164Z,100615.27
2019-05-30T00:41:44.376Z,100606.77
2019-05-30T00:44:20.695Z,100617.61
2019-05-30T00:46:53.874Z,100614.31
2019-05-30T00:49:26.679Z,100616.06
2019-05-30T00:52:00.553Z,100615.02
2019-05-30T00:54:33.164Z,100603.69
2019-05-30T00:57:06.862Z,100604.23
2019-05-30T00:59:39.537Z,100605.80
2019-05-30T01:02:11.812Z,100608.19
2019-05-30T01:04:44.194Z,100604.75
2019-05-30T01:07:17.154Z,100610.33
2019-05-30T01:09:49.659Z,100604.64
2019-05-30T01:12:21.863Z,100610.25
2019-05-30T01:14:54.300Z,100615.64
2019-05-30T01:17:26.559Z,100608.77
2019-05-30T01:19:59.074Z,100613.37
2019-05-30T01:22:31.543Z,100611.34
2019-05-30T01:25:05.515Z,100610.68
2019-05-30T01:27:38.055Z,100610.25
2019-05-30T01:30:11.548Z,100609.23
2019-05-30T01:32:43.818Z,100602.14
2019-05-30T01:35:16.507Z,100611.58
2019-05-30T01:37:51.491Z,100617.83
2019-05-30T01:40:23.748Z,100626.08
2019-05-30T01:42:56.087Z,100612.55
2019-05-30T01:45:28.325Z,100608.32
2019-05-30T01:48:00.595Z,100609.95
2019-05-30T01:50:32.931Z,100611.14
2019-05-30T01:53:06.367Z,100613.75
2019-05-30T01:55:39.016Z,100610.30
2019-05-30T01:58:13.223Z,100603.03
2019-05-30T02:00:47.796Z,100609.25
2019-05-30T02:03:19.980Z,100608.82
2019-05-30T02:05:52.477Z,100609.61
2019-05-30T02:08:24.714Z,100604.94
2019-05-30T02:10:57.167Z,100598.86
2019-05-30T02:13:29.411Z,100602.30
2019-05-30T02:16:03.793Z,100612.92
2019-05-30T02:18:36.012Z,100616.47
2019-05-30T02:21:08.477Z,100614.66
2019-05-30T02:23:40.707Z,100617.83
2019-05-30T02:26:13.034Z,100618.01
2019-05-30T02:28:45.525Z,100618.98
2019-05-30T02:31:37.317Z,100616.55
2019-05-30T02:33:53.402Z,100617.13
2019-05-30T02:36:25.914Z,100619.55
2019-05-30T02:38:58.457Z,100615.89
2019-05-30T02:41:31.138Z,100619.11
2019-05-30T02:44:05.313Z,100618.28
2019-05-30T02:46:37.376Z,100616.28
2019-05-30T02:49:11.901Z,100619.91
2019-05-30T02:51:43.700Z,100616.72
2019-05-30T02:54:16.176Z,100618.14
2019-05-30T02:56:48.712Z,100633.84
2019-05-30T02:59:21.130Z,100626.20
2019-05-30T03:02:00.936Z,100618.55
2019-05-30T03:04:27.475Z,100619.59
2019-05-30T03:07:01.837Z,100614.36
2019-05-30T03:09:33.802Z,100617.62
2019-05-30T03:12:08.196Z,100619.68
2019-05-30T03:14:40.410Z,100621.75
2019-05-30T03:17:14.556Z,100618.31
2019-05-30T03:19:46.639Z,100621.61
2019-05-30T03:22:18.963Z,100614.98
2019-05-30T03:24:51.363Z,100617.64
2019-05-30T03:27:23.656Z,100617.64
2019-05-30T03:29:55.970Z,100628.75
2019-05-30T03:33:02.665Z,100626.97
2019-05-30T03:35:06.179Z,100625.75
2019-05-30T03:37:36.271Z,100625.39
2019-05-30T03:40:09.044Z,100628.42
2019-05-30T03:42:41.402Z,100632.27
2019-05-30T03:45:16.443Z,100636.32
2019-05-30T03:47:53.971Z,100633.94
2019-05-30T03:50:29.870Z,100636.22
2019-05-30T03:53:04.377Z,100632.83
2019-05-30T03:58:16.663Z,100638.98
2019-05-30T04:00:58.949Z,100637.58
2019-05-30T04:03:43.674Z,100641.70
2019-05-30T04:06:31.255Z,100649.02
2019-05-30T04:09:11.830Z,100645.04
2019-05-30T04:11:54.119Z,100636.42
2019-05-30T04:14:32.311Z,100642.20
2019-05-30T04:17:04.721Z,100643.48
2019-05-30T04:19:37.119Z,100648.39
2019-05-30T04:22:11.420Z,100644.84
2019-05-30T04:24:44.107Z,100650.13
2019-05-30T04:27:18.608Z,100651.78
2019-05-30T04:29:51.440Z,100653.08
2019-05-30T04:32:23.703Z,100653.94
2019-05-30T04:34:56.276Z,100651.39
2019-05-30T04:37:28.519Z,100659.99
2019-05-30T04:40:01.447Z,100658.23
2019-05-30T04:42:33.783Z,100663.76
2019-05-30T04:45:07.187Z,100666.64
2019-05-30T04:47:39.442Z,100656.20
2019-05-30T04:50:12.220Z,100657.88
2019-05-30T04:52:46.560Z,100654.91
2019-05-30T04:55:21.066Z,100662.08
2019-05-30T04:57:53.659Z,100657.36
2019-05-30T05:00:27.203Z,100660.09
2019-05-30T05:02:59.688Z,100657.32
2019-05-30T05:05:31.891Z,100662.11
2019-05-30T05:08:04.347Z,100663.78
2019-05-30T05:10:36.604Z,100660.19
2019-05-30T05:13:09.053Z,100668.42
2019-05-30T05:15:41.339Z,100664.65
2019-05-30T05:20:51.938Z,100660.67
2019-05-30T05:23:24.103Z,100663.87
2019-05-30T05:26:00.781Z,100657.87
2019-05-30T05:28:30.776Z,100659.86
2019-05-30T05:31:03.222Z,100655.28
2019-05-30T05:33:35.644Z,100656.38
2019-05-30T05:36:07.894Z,100653.50
2019-05-30T05:38:40.503Z,100654.53
2019-05-30T05:41:14.496Z,100652.16
2019-05-30T05:43:47.534Z,100644.02
2019-05-30T05:46:20.467Z,100649.01
2019-05-30T05:48:52.753Z,100646.38
2019-05-30T05:51:25.169Z,100647.63
2019-05-30T05:53:57.422Z,100648.41
2019-05-30T05:56:30.108Z,100643.45
2019-05-30T05:59:05.936Z,100640.22
2019-05-30T06:01:40.451Z,100635.69
2019-05-30T06:04:13.850Z,100631.01
2019-05-30T06:06:46.712Z,100625.75
2019-05-30T06:09:20.503Z,100623.53
2019-05-30T06:11:53.723Z,100620.35
2019-05-30T06:14:26.368Z,100618.32
2019-05-30T06:16:59.006Z,100616.25
2019-05-30T06:19:45.288Z,100610.17
2019-05-30T06:22:06.004Z,100616.27
2019-05-30T06:24:38.612Z,100613.70
2019-05-30T06:27:12.463Z,100613.03
2019-05-30T06:29:45.283Z,100612.05
2019-05-30T06:32:18.549Z,100608.08
2019-05-30T06:34:51.131Z,100612.16
2019-05-30T06:37:23.536Z,100608.01
2019-05-30T06:39:56.161Z,100617.43
2019-05-30T06:42:30.316Z,100612.98
2019-05-30T06:45:02.819Z,100615.55
2019-05-30T06:47:35.512Z,100617.16
2019-05-30T06:50:09.291Z,100624.24
2019-05-30T06:52:41.523Z,100623.63
2019-05-30T06:55:14.470Z,100615.16
2019-05-30T06:57:46.968Z,100611.33
2019-05-30T07:00:21.690Z,100617.88
2019-05-30T07:02:54.415Z,100612.63
2019-05-30T07:05:28.367Z,100616.53
2019-05-30T07:08:01.380Z,100615.09
2019-05-30T07:10:34.074Z,100614.30
2019-05-30T07:13:06.656Z,100608.00
2019-05-30T07:15:38.988Z,100603.14
2019-05-30T07:18:11.532Z,100603.59
2019-05-30T07:20:43.843Z,100601.47
2019-05-30T07:23:16.161Z,100601.09
2019-05-30T07:25:48.475Z,100594.34
2019-05-30T07:28:21.160Z,100593.21
2019-05-30T07:30:54.213Z,100585.03
2019-05-30T07:33:27.819Z,100577.22
2019-05-30T07:36:01.289Z,100584.08
2019-05-30T07:38:34.731Z,100583.05
2019-05-30T07:41:07.379Z,100583.01
2019-05-30T07:43:39.654Z,100582.28
2019-05-30T07:46:12.267Z,100586.30
2019-05-30T07:48:44.743Z,100590.83
2019-05-30T07:51:17.149Z,100587.66
2019-05-30T07:53:49.530Z,100591.23
2019-05-30T07:56:22.036Z,100598.02
2019-05-30T07:58:55.301Z,100600.17
2019-05-30T08:01:28.517Z,100616.36
2019-05-30T08:04:03.601Z,100615.14
2019-05-30T08:06:37.906Z,100608.64
2019-05-30T08:09:14.229Z,100602.25
2019-05-30T08:11:48.879Z,100608.46
2019-05-30T08:14:21.119Z,100605.88
2019-05-30T08:16:53.810Z,100609.55
2019-05-30T08:19:26.167Z,100605.62
2019-05-30T08:21:58.634Z,100605.00
2019-05-30T08:24:32.153Z,100599.45
2019-05-30T08:27:05.155Z,100597.78
2019-05-30T08:29:38.564Z,100595.66
2019-05-30T08:32:11.385Z,100601.33
2019-05-30T08:34:44.029Z,100605.57
2019-05-30T08:37:16.428Z,100596.89
2019-05-30T08:39:48.623Z,100596.95
2019-05-30T08:42:21.026Z,100593.13
2019-05-30T08:44:53.546Z,100590.91
2019-05-30T08:47:25.855Z,100586.33
2019-05-30T08:49:58.203Z,100576.83
2019-05-30T08:52:30.726Z,100579.88
2019-05-30T08:55:03.050Z,100572.98
2019-05-30T08:57:36.524Z,100580.89
2019-05-30T09:00:10.955Z,100576.48
2019-05-30T09:02:43.145Z,100575.38
2019-05-30T09:05:16.389Z,100579.53
2019-05-30T09:07:48.635Z,100572.17
2019-05-30T09:10:20.977Z,100565.86
2019-05-30T09:12:53.244Z,100564.46
2019-05-30T09:15:27.466Z,100560.92
2019-05-30T09:17:59.746Z,100561.06
2019-05-30T09:20:32.165Z,100560.72
2019-05-30T09:23:04.457Z,100559.11
2019-05-30T09:25:37.248Z,100553.17
2019-05-30T09:28:10.767Z,100551.93
2019-05-30T09:30:43.564Z,100551.33
2019-05-30T09:33:16.929Z,100542.50
2019-05-30T09:35:49.411Z,100531.64
2019-05-30T09:38:21.769Z,100530.33
2019-05-30T09:40:54.356Z,100520.87
2019-05-30T09:43:27.070Z,100523.61
2019-05-30T09:45:59.575Z,100518.19
2019-05-30T09:48:32.277Z,100511.87
2019-05-30T09:51:04.752Z,100512.28
2019-05-30T09:53:37.109Z,100507.79
2019-05-30T09:56:09.601Z,100503.66
2019-05-30T09:58:42.732Z,100495.72
2019-05-30T10:01:17.244Z,100490.94
2019-05-30T10:03:52.471Z,100492.38
2019-05-30T10:06:29.432Z,100490.42
2019-05-30T10:09:01.524Z,100487.58
2019-05-30T10:11:33.858Z,100489.58
2019-05-30T10:14:06.411Z,100482.62
2019-05-30T10:16:38.770Z,100490.63
2019-05-30T10:19:11.121Z,100488.32
2019-05-30T10:21:45.490Z,100479.83
2019-05-30T10:24:17.348Z,100480.53
2019-05-30T10:26:49.670Z,100472.50
2019-05-30T10:29:22.109Z,100471.07
2019-05-30T10:31:54.409Z,100465.25
2019-05-30T10:34:26.820Z,100465.07
2019-05-30T10:36:59.250Z,100463.12
2019-05-30T10:39:31.519Z,100462.57
2019-05-30T10:42:03.781Z,100453.72
2019-05-30T10:44:36.112Z,100452.20
2019-05-30T10:47:08.350Z,100456.58
2019-05-30T10:49:40.708Z,100452.11
2019-05-30T10:52:13.015Z,100449.62
2019-05-30T10:54:46.698Z,100441.03
2019-05-30T10:57:19.709Z,100438.72
2019-05-30T10:59:52.574Z,100433.87
2019-05-30T11:02:25.080Z,100437.02
2019-05-30T11:04:57.622Z,100432.34
2019-05-30T11:08:00.784Z,100430.94
2019-05-30T11:10:35.955Z,100422.80
2019-05-30T11:13:10.127Z,100426.92
2019-05-30T11:15:42.474Z,100428.62
2019-05-30T11:18:15.802Z,100421.72
2019-05-30T11:20:49.933Z,100417.51
2019-05-30T11:23:22.387Z,100419.80
2019-05-30T11:25:54.745Z,100414.44
2019-05-30T11:28:27.340Z,100413.69
2019-05-30T11:31:03.538Z,100419.17
2019-05-30T11:33:33.551Z,100415.12
2019-05-30T11:36:05.962Z,100416.23
2019-05-30T11:38:38.356Z,100417.30
2019-05-30T11:41:10.759Z,100419.27
2019-05-30T11:43:43.136Z,100412.67
2019-05-30T11:46:15.666Z,100414.10
2019-05-30T11:48:48.071Z,100406.66
2019-05-30T11:51:20.583Z,100401.76
2019-05-30T11:53:53.782Z,100402.09
2019-05-30T11:56:26.344Z,100404.34
2019-05-30T11:58:58.571Z,100395.29
2019-05-30T12:01:31.873Z,100394.68
2019-05-30T12:04:05.117Z,100393.58
2019-05-30T12:06:37.647Z,100390.28
2019-05-30T12:09:10.890Z,100377.68
2019-05-30T12:11:43.414Z,100383.41
2019-05-30T12:14:15.673Z,100382.95
2019-05-30T12:16:47.979Z,100377.36
2019-05-30T12:19:20.368Z,100378.00
2019-05-30T12:21:53.559Z,100379.79
2019-05-30T12:24:26.559Z,100380.94
2019-05-30T12:27:00.162Z,100384.41
2019-05-30T12:29:32.828Z,100383.52
2019-05-30T12:32:05.166Z,100385.23
2019-05-30T12:34:37.571Z,100387.73
2019-05-30T12:37:10.379Z,100385.95
2019-05-30T12:39:43.236Z,100393.36
2019-05-30T12:42:15.534Z,100391.14
2019-05-30T12:44:48.016Z,100396.55
2019-05-30T12:47:23.664Z,100400.86
2019-05-30T12:49:57.156Z,100397.05
2019-05-30T12:52:29.450Z,100402.32
2019-05-30T12:55:03.158Z,100391.33
2019-05-30T12:57:35.788Z,100390.16
2019-05-30T13:00:16.498Z,100385.94
2019-05-30T13:02:43.172Z,100393.69
2019-05-30T13:05:16.112Z,100392.58
2019-05-30T13:07:48.593Z,100399.77
2019-05-30T13:10:21.653Z,100397.49
2019-05-30T13:12:53.967Z,100395.26
2019-05-30T13:15:26.532Z,100398.61
2019-05-30T13:17:58.989Z,100389.67
2019-05-30T13:20:31.714Z,100391.19
2019-05-30T13:23:04.702Z,100388.41
2019-05-30T13:25:37.389Z,100385.45
2019-05-30T13:28:09.968Z,100385.31
2019-05-30T13:30:42.699Z,100393.08
2019-05-30T13:33:17.747Z,100388.84
2019-05-30T13:35:50.161Z,100384.64
2019-05-30T13:38:26.342Z,100383.30
2019-05-30T13:40:57.370Z,100386.15
2019-05-30T13:43:29.651Z,100381.69
2019-05-30T13:46:04.559Z,100379.46
2019-05-30T13:48:36.891Z,100382.31
2019-05-30T13:51:09.231Z,100371.69
2019-05-30T13:53:41.490Z,100376.72
2019-05-30T13:56:14.038Z,100380.92
2019-05-30T13:58:46.342Z,100380.23
2019-05-30T14:01:19.209Z,100381.53
2019-05-30T14:03:51.884Z,100382.70
2019-05-30T14:06:25.454Z,100375.00
2019-05-30T14:09:00.142Z,100371.44
2019-05-30T14:11:32.664Z,100375.58
2019-05-30T14:14:05.040Z,100375.66
2019-05-30T14:16:37.772Z,100374.84
2019-05-30T14:19:11.585Z,100376.34
2019-05-30T14:21:44.239Z,100376.16
2019-05-30T14:24:16.630Z,100370.53
2019-05-30T14:26:49.075Z,100382.20
2019-05-30T14:29:21.651Z,100377.37
2019-05-30T14:31:53.946Z,100375.94
2019-05-30T14:34:26.720Z,100376.39
2019-05-30T14:36:58.996Z,100376.20
2019-05-30T14:39:31.289Z,100371.36
2019-05-30T14:42:04.970Z,100367.34
2019-05-30T14:44:37.470Z,100366.86
2019-05-30T14:47:10.581Z,100374.52
2019-05-30T14:49:43.147Z,100374.82
2019-05-30T14:52:17.051Z,100375.31
2019-05-30T14:54:49.825Z,100374.18
2019-05-30T14:57:22.641Z,100370.42
2019-05-30T14:59:55.247Z,100370.12
2019-05-30T15:02:27.918Z,100365.27
2019-05-30T15:05:00.538Z,100367.33
2019-05-30T15:07:33.288Z,100362.05
2019-05-30T15:10:08.503Z,100362.67
2019-05-30T15:12:41.566Z,100359.08
2019-05-30T15:15:18.679Z,100359.14
2019-05-30T15:17:51.438Z,100363.05
2019-05-30T15:20:24.023Z,100359.84
2019-05-30T15:22:56.390Z,100363.87
2019-05-30T15:25:28.778Z,100354.94
2019-05-30T15:28:01.119Z,100354.74
2019-05-30T15:30:33.399Z,100355.37
2019-05-30T15:33:06.307Z,100353.77
2019-05-30T15:35:38.994Z,100354.63
2019-05-30T15:38:12.861Z,100356.72
2019-05-30T15:40:45.740Z,100359.26
2019-05-30T15:43:19.483Z,100359.11
2019-05-30T15:45:52.187Z,100350.08
2019-05-30T15:48:24.530Z,100357.23
2019-05-30T15:50:56.853Z,100352.62
2019-05-30T15:53:29.349Z,100355.47
2019-05-30T15:56:03.261Z,100354.64
2019-05-30T15:58:35.554Z,100354.45
2019-05-30T16:01:07.885Z,100354.45
2019-05-30T16:03:42.442Z,100364.88
2019-05-30T16:06:16.551Z,100364.11
2019-05-30T16:08:49.834Z,100362.56
2019-05-30T16:11:23.946Z,100366.48
2019-05-30T16:13:56.348Z,100372.84
2019-05-30T16:16:39.752Z,100373.50
2019-05-30T16:19:15.557Z,100373.75
2019-05-30T16:21:36.795Z,100367.33
2019-05-30T16:24:09.093Z,100372.83
2019-05-30T16:26:41.655Z,100380.02
2019-05-30T16:29:13.984Z,100382.25
2019-05-30T16:31:46.386Z,100383.92
2019-05-30T16:34:20.077Z,100385.38
2019-05-30T16:36:53.377Z,100388.91
2019-05-30T16:39:26.610Z,100393.45
2019-05-30T16:41:59.783Z,100397.83
2019-05-30T16:44:32.308Z,100398.54
2019-05-30T16:47:04.769Z,100398.20
2019-05-30T16:49:37.183Z,100395.66
2019-05-30T16:52:09.621Z,100393.89
2019-05-30T16:54:41.923Z,100401.27
2019-05-30T16:57:14.663Z,100401.52
2019-05-30T16:59:47.112Z,100394.07
2019-05-30T17:02:19.447Z,100393.92
2019-05-30T17:04:51.999Z,100392.59
2019-05-30T17:07:24.309Z,100397.94
2019-05-30T17:09:56.862Z,100400.87
2019-05-30T17:12:29.224Z,100402.14
2019-05-30T17:15:01.707Z,100412.34
2019-05-30T17:17:34.496Z,100407.69
2019-05-30T17:20:09.146Z,100408.80
2019-05-30T17:22:41.475Z,100411.88
2019-05-30T17:25:14.652Z,100420.25
2019-05-30T17:27:46.929Z,100417.25
2019-05-30T17:30:20.119Z,100425.62
2019-05-30T17:32:52.507Z,100428.30
2019-05-30T17:35:26.190Z,100428.73
2019-05-30T17:37:58.632Z,100432.23
2019-05-30T17:40:43.613Z,100429.23
2019-05-30T17:43:05.194Z,100431.28
2019-05-30T17:45:37.555Z,100434.55
2019-05-30T17:48:16.614Z,100436.39
2019-05-30T17:50:44.699Z,100442.34
2019-05-30T17:53:17.111Z,100435.06
2019-05-30T17:55:49.529Z,100438.33
2019-05-30T17:58:22.189Z,100439.38
2019-05-30T18:00:56.984Z,100433.53
2019-05-30T18:03:29.096Z,100436.19
2019-05-30T18:06:02.056Z,100441.50
2019-05-30T18:08:34.649Z,100440.73
2019-05-30T18:11:06.892Z,100443.36
2019-05-30T18:13:39.196Z,100448.44
2019-05-30T18:16:11.427Z,100444.42
2019-05-30T18:18:43.732Z,100449.08
2019-05-30T18:21:16.196Z,100451.34
2019-05-30T18:23:48.606Z,100449.72
2019-05-30T18:26:21.488Z,100453.98
2019-05-30T18:28:54.543Z,100459.66
2019-05-30T18:31:28.016Z,100460.05
2019-05-30T18:34:00.509Z,100461.27
2019-05-30T18:36:33.743Z,100456.64
2019-05-30T18:39:07.841Z,100463.53
2019-05-30T18:41:40.377Z,100459.87
2019-05-30T18:44:12.739Z,100455.61
2019-05-30T18:46:45.129Z,100454.19
2019-05-30T18:49:17.497Z,100460.07
2019-05-30T18:51:49.955Z,100456.84
2019-05-30T18:54:24.400Z,100455.40
2019-05-30T18:56:57.350Z,100464.48
2019-05-30T18:59:29.667Z,100463.67
2019-05-30T19:02:01.884Z,100469.12
2019-05-30T19:04:34.322Z,100469.73
2019-05-30T19:07:06.640Z,100463.63
2019-05-30T19:09:38.997Z,100469.50
2019-05-30T19:12:11.302Z,100474.20
2019-05-30T19:14:43.639Z,100475.81
2019-05-30T19:17:15.992Z,100484.11
2019-05-30T19:19:51.185Z,100479.27
2019-05-30T19:22:22.225Z,100478.22
2019-05-30T19:24:54.653Z,100481.25
2019-05-30T19:27:28.360Z,100483.50
2019-05-30T19:30:01.017Z,100481.45
2019-05-30T19:32:34.753Z,100484.09
2019-05-30T19:35:07.841Z,100474.36
2019-05-30T19:37:40.231Z,100473.34
2019-05-30T19:40:14.058Z,100473.34
2019-05-30T19:42:46.498Z,100470.30
2019-05-30T19:45:19.083Z,100469.50
2019-05-30T19:47:51.428Z,100466.66
2019-05-30T19:50:23.646Z,100467.45
2019-05-30T19:52:56.096Z,100456.92
2019-05-30T19:55:29.093Z,100460.55
2019-05-30T19:58:04.004Z,100453.88
2019-05-30T20:00:56.708Z,100462.20
2019-05-30T20:03:10.772Z,100456.91
2019-05-30T20:05:46.053Z,100463.02
2019-05-30T20:08:18.975Z,100463.45
2019-05-30T20:10:51.426Z,100462.42
2019-05-30T20:13:23.811Z,100460.98
2019-05-30T20:15:56.299Z,100456.33
2019-05-30T20:18:28.957Z,100460.22
2019-05-30T20:21:02.022Z,100458.00
2019-05-30T20:23:49.499Z,100447.45
2019-05-30T20:26:12.275Z,100450.94
2019-05-30T20:28:44.588Z,100453.20
2019-05-30T20:31:17.418Z,100457.86
2019-05-30T20:33:49.681Z,100452.20
2019-05-30T20:36:21.942Z,100451.84
2019-05-30T20:38:54.334Z,100455.48
2019-05-30T20:41:26.571Z,100465.63
2019-05-30T20:43:58.823Z,100452.48
2019-05-30T20:46:31.282Z,100454.93
2019-05-30T20:49:03.579Z,100450.69
2019-05-30T20:51:37.210Z,100457.58
2019-05-30T20:54:09.908Z,100458.98
2019-05-30T20:56:43.726Z,100454.51
2019-05-30T20:59:16.497Z,100459.40
2019-05-30T21:01:48.919Z,100460.63
2019-05-30T21:04:21.160Z,100468.32
2019-05-30T21:06:53.973Z,100473.59
2019-05-30T21:09:29.511Z,100469.77
2019-05-30T21:12:05.447Z,100472.41
2019-05-30T21:14:39.530Z,100475.44
2019-05-30T21:17:12.679Z,100461.48
2019-05-30T21:19:46.087Z,100469.38
2019-05-30T21:22:19.625Z,100470.77
2019-05-30T21:24:52.066Z,100466.32
2019-05-30T21:27:24.665Z,100468.54
2019-05-30T21:29:57.336Z,100470.79
2019-05-30T21:32:29.638Z,100469.34
2019-05-30T21:35:02.440Z,100476.43
2019-05-30T21:37:34.947Z,100482.93
2019-05-30T21:40:07.855Z,100483.31
2019-05-30T21:42:55.642Z,100481.90
2019-05-30T21:45:14.858Z,100481.48
2019-05-30T21:47:47.236Z,100467.11
2019-05-30T21:50:20.931Z,100462.87
2019-05-30T21:52:53.344Z,100457.00
2019-05-30T21:55:25.729Z,100456.79
2019-05-30T21:57:58.703Z,100461.25
2019-05-30T22:01:26.177Z,100460.45
2019-05-30T22:03:59.292Z,100464.49
2019-05-30T22:06:32.839Z,100466.50
2019-05-30T22:09:11.491Z,100470.58
2019-05-30T22:11:45.269Z,100463.67
2019-05-30T22:14:20.940Z,100463.28
2019-05-30T22:16:53.225Z,100467.33
2019-05-30T22:19:25.725Z,100467.53
2019-05-30T22:21:58.015Z,100470.75
2019-05-30T22:24:30.436Z,100476.03
2019-05-30T22:27:02.981Z,100478.24
2019-05-30T22:29:35.906Z,100472.38
2019-05-30T22:32:08.324Z,100467.91
2019-05-30T22:34:40.796Z,100468.13
2019-05-30T22:37:13.116Z,100475.20
2019-05-30T22:39:46.728Z,100465.91
2019-05-30T22:42:19.019Z,100469.74
2019-05-30T22:44:52.303Z,100470.95
2019-05-30T22:47:24.730Z,100467.33
2019-05-30T22:49:57.072Z,100464.49
2019-05-30T22:52:29.311Z,100462.66
2019-05-30T22:55:02.860Z,100463.08
2019-05-30T22:57:35.100Z,100466.30
2019-05-30T23:00:08.311Z,100460.42
2019-05-30T23:02:45.802Z,100466.70
2019-05-30T23:05:18.467Z,100463.08
2019-05-30T23:07:51.475Z,100456.00
2019-05-30T23:10:24.213Z,100455.17
2019-05-30T23:12:56.508Z,100456.38
2019-05-30T23:15:28.844Z,100455.58
2019-05-30T23:18:01.360Z,100456.80
2019-05-30T23:20:33.763Z,100461.45
2019-05-30T23:23:06.183Z,100462.05
2019-05-30T23:25:38.605Z,100472.37
2019-05-30T23:28:10.993Z,100469.71
2019-05-30T23:30:43.258Z,100473.55
2019-05-30T23:33:15.601Z,100457.77
2019-05-30T23:35:48.154Z,100455.52
2019-05-30T23:38:20.885Z,100475.13
2019-05-30T23:40:53.453Z,100470.45
2019-05-30T23:43:25.917Z,100472.07
2019-05-30T23:45:59.572Z,100473.86
2019-05-30T23:48:32.204Z,100468.60
2019-05-30T23:51:05.117Z,100469.59
2019-05-30T23:53:37.955Z,100474.83
2019-05-30T23:56:10.605Z,100475.20
2019-05-30T23:58:43.240Z,100475.59
